Time;durP1;ratioP1;P1;durP2;ratioP2;P2;SDS_P1;SDS_P2;PMS_P1;PMS_P2;Temp;Humidity;BMP_temperature;BMP_pressure;BME280_temperature;BME280_humidity;BME280_pressure;Samples;Min_cycle;Max_cycle;Signal;HPM_P1;HPM_P2
2023/02/12 00:01:12;;;;;;;28.83;12.93;;;7.30;48.30;;;;;;7568945;23;20010;-65
2023/02/12 00:04:13;;;;;;;28.98;12.85;;;7.30;48.40;;;;;;7567564;23;20007;-65
2023/02/12 00:07:14;;;;;;;34.97;14.02;;;7.30;48.40;;;;;;7569611;23;20010;-65
2023/02/12 00:10:15;;;;;;;37.97;12.73;;;7.20;48.50;;;;;;7573812;23;20120;-65
2023/02/12 00:13:17;;;;;;;33.85;12.25;;;7.20;48.50;;;;;;7569197;23;20436;-65
2023/02/12 00:16:21;;;;;;;29.15;10.93;;;7.20;48.50;;;;;;7566970;23;20097;-67
2023/02/12 00:19:23;;;;;;;27.45;10.43;;;7.20;48.50;;;;;;7568385;23;20302;-65
2023/02/12 00:22:24;;;;;;;30.52;10.63;;;7.20;48.40;;;;;;7568192;23;20006;-66
2023/02/12 00:25:25;;;;;;;21.05;9.05;;;7.20;48.30;;;;;;7568363;23;20498;-66
2023/02/12 00:28:26;;;;;;;26.65;8.98;;;7.20;48.00;;;;;;7567902;23;20397;-66
2023/02/12 00:31:30;;;;;;;25.60;10.48;;;7.20;47.70;;;;;;7566781;23;20049;-65
2023/02/12 00:34:31;;;;;;;29.63;11.25;;;7.20;47.50;;;;;;7566648;23;20068;-66
2023/02/12 00:37:32;;;;;;;31.58;12.70;;;7.20;47.70;;;;;;7566012;23;20049;-66
2023/02/12 00:40:33;;;;;;;29.17;13.65;;;7.20;47.90;;;;;;7566177;23;20010;-67
2023/02/12 00:43:35;;;;;;;39.95;13.15;;;7.10;48.20;;;;;;7566251;23;20018;-65
2023/02/12 00:46:36;;;;;;;27.48;11.93;;;7.10;48.50;;;;;;7567537;23;20397;-65
2023/02/12 00:49:37;;;;;;;37.20;13.07;;;7.10;48.80;;;;;;7565811;23;20025;-65
2023/02/12 00:52:38;;;;;;;26.17;11.93;;;7.00;48.90;;;;;;7566171;23;20030;-66
2023/02/12 00:55:39;;;;;;;32.40;12.15;;;7.00;48.90;;;;;;7566358;23;20017;-65
2023/02/12 00:58:40;;;;;;;23.70;11.63;;;7.00;49.00;;;;;;7567079;23;20016;-67
2023/02/12 01:01:41;;;;;;;26.65;10.73;;;6.90;49.10;;;;;;7567910;23;20002;-67
2023/02/12 01:04:42;;;;;;;27.27;12.43;;;6.80;49.30;;;;;;7565731;23;20097;-66
2023/02/12 01:07:43;;;;;;;32.47;12.90;;;6.70;49.50;;;;;;7565430;23;20061;-65
2023/02/12 01:10:44;;;;;;;27.65;12.43;;;6.70;49.60;;;;;;7567388;23;20006;-66
2023/02/12 01:13:45;;;;;;;39.42;11.50;;;6.60;49.70;;;;;;7567266;23;20340;-65
2023/02/12 01:16:46;;;;;;;26.63;11.02;;;6.60;49.90;;;;;;7565369;23;20806;-66
2023/02/12 01:19:47;;;;;;;24.35;10.95;;;6.50;50.00;;;;;;7565141;23;20055;-66
2023/02/12 01:22:50;;;;;;;21.75;8.70;;;6.50;50.20;;;;;;7565641;23;20006;-65
2023/02/12 01:25:52;;;;;;;29.70;13.07;;;6.40;50.30;;;;;;7567197;23;20003;-65
2023/02/12 01:28:57;;;;;;;21.20;9.90;;;6.40;50.40;;;;;;7541462;23;20093;-66
2023/02/12 01:31:59;;;;;;;36.47;11.25;;;6.30;50.60;;;;;;7565779;23;20014;-65
2023/02/12 01:35:00;;;;;;;29.67;11.95;;;6.30;50.70;;;;;;7565228;23;20325;-65
2023/02/12 01:38:02;;;;;;;34.80;11.65;;;6.30;50.70;;;;;;7564855;23;20320;-65
2023/02/12 01:41:12;;;;;;;21.77;9.85;;;6.30;50.80;;;;;;7541277;23;20018;-65
2023/02/12 01:44:14;;;;;;;31.35;11.02;;;6.30;50.80;;;;;;7541175;23;20432;-66
2023/02/12 01:47:17;;;;;;;28.85;10.80;;;6.30;51.40;;;;;;7540740;23;20014;-65
2023/02/12 01:50:20;;;;;;;26.48;11.38;;;6.20;50.90;;;;;;7566889;23;20372;-66
2023/02/12 01:53:24;;;;;;;35.00;11.23;;;6.20;50.90;;;;;;7541468;23;20085;-66
2023/02/12 01:56:25;;;;;;;22.58;11.40;;;6.20;51.00;;;;;;7541532;23;20325;-65
2023/02/12 01:59:27;;;;;;;33.65;11.02;;;6.10;51.10;;;;;;7543675;23;20011;-65
2023/02/12 02:02:31;;;;;;;31.35;10.07;;;6.10;51.10;;;;;;7568181;23;20033;-65
2023/02/12 02:06:01;;;;;;;27.23;10.50;;;6.10;51.00;;;;;;7541483;23;20006;-65
2023/02/12 02:09:03;;;;;;;27.45;10.60;;;6.10;51.00;;;;;;7512846;23;20041;-64
2023/02/12 02:15:28;;;;;;;30.60;12.60;;;6.20;50.90;;;;;;7567093;23;20010;-65
2023/02/12 02:18:43;;;;;;;25.02;10.02;;;6.20;50.90;;;;;;7541031;23;20010;-65
2023/02/12 02:22:06;;;;;;;21.50;10.40;;;6.20;50.80;;;;;;7541683;23;20003;-66
2023/02/12 02:25:12;;;;;;;28.55;11.02;;;6.20;50.90;;;;;;7567110;23;20011;-66
2023/02/12 02:28:29;;;;;;;32.20;11.25;;;6.20;50.90;;;;;;7541313;23;20061;-66
2023/02/12 02:31:43;;;;;;;23.63;11.45;;;6.10;51.00;;;;;;7567084;23;20022;-67
2023/02/12 02:35:04;;;;;;;21.50;10.10;;;6.00;51.10;;;;;;7570258;23;20060;-67
2023/02/12 02:38:10;;;;;;;28.23;11.02;;;5.90;51.30;;;;;;7544575;23;20014;-67
2023/02/12 02:41:24;;;;;;;29.60;9.77;;;5.90;51.40;;;;;;7541160;23;20085;-65
2023/02/12 02:44:38;;;;;;;27.02;11.43;;;5.80;51.30;;;;;;7541300;23;20017;-66
2023/02/12 02:47:48;;;;;;;28.73;11.95;;;5.80;51.30;;;;;;7566621;23;20018;-65
2023/02/12 02:51:20;;;;;;;28.23;11.85;;;5.80;51.30;;;;;;7541288;23;20017;-66
2023/02/12 02:54:29;;;;;;;28.88;10.23;;;5.90;51.50;;;;;;7562405;23;20014;-65
2023/02/12 02:57:38;;;;;;;26.95;10.88;;;5.80;51.60;;;;;;7568312;23;20344;-66
2023/02/12 03:01:04;;;;;;;28.63;10.68;;;5.80;51.70;;;;;;7568842;23;20075;-67
2023/02/12 03:04:08;;;;;;;30.17;10.88;;;5.70;51.80;;;;;;7543137;23;20495;-66
2023/02/12 03:07:18;;;;;;;28.20;11.13;;;5.60;51.90;;;;;;7568245;23;20011;-66
2023/02/12 03:10:28;;;;;;;23.38;12.77;;;5.60;52.10;;;;;;7543423;23;20403;-66
2023/02/12 03:13:53;;;;;;;26.13;11.15;;;5.60;52.20;;;;;;7543027;23;20042;-65
2023/02/12 03:17:05;;;;;;;23.65;9.10;;;5.50;52.30;;;;;;7568603;23;20050;-65
2023/02/12 03:20:15;;;;;;;31.17;10.70;;;5.50;52.40;;;;;;7543325;23;20010;-66
2023/02/12 03:23:50;;;;;;;27.73;10.23;;;5.40;52.40;;;;;;7568649;23;20018;-66
2023/02/12 03:26:57;;;;;;;25.10;10.38;;;5.40;52.60;;;;;;7435002;23;20175;-67
2023/02/12 03:29:58;;;;;;;23.17;11.63;;;5.40;52.60;;;;;;7458744;23;20012;-65
2023/02/12 03:33:53;;;;;;;32.70;12.77;;;5.40;52.50;;;;;;7435354;23;20094;-65
2023/02/12 03:37:18;;;;;;;22.02;10.18;;;5.40;52.50;;;;;;7388783;24;20012;-66
2023/02/12 03:40:31;;;;;;;27.92;9.60;;;5.50;52.60;;;;;;7389287;24;20017;-66
2023/02/12 03:43:50;;;;;;;31.63;10.43;;;5.40;52.50;;;;;;7389373;24;20439;-67
2023/02/12 03:47:10;;;;;;;24.45;11.60;;;5.50;52.60;;;;;;7389237;24;20017;-66
2023/02/12 03:50:26;;;;;;;22.85;10.65;;;5.50;52.50;;;;;;7389163;24;20019;-66
2023/02/12 03:53:28;;;;;;;21.67;10.38;;;5.50;52.40;;;;;;7388934;24;20035;-67
2023/02/12 03:56:37;;;;;;;27.55;9.02;;;5.50;52.50;;;;;;7388625;24;20092;-67
2023/02/12 03:59:39;;;;;;;24.38;9.90;;;5.50;52.50;;;;;;7388276;24;20471;-66
2023/02/12 04:02:41;;;;;;;27.13;10.23;;;5.40;52.50;;;;;;7417763;23;20015;-68
2023/02/12 04:05:42;;;;;;;26.63;10.35;;;5.30;52.60;;;;;;7493076;23;20437;-66
2023/02/12 04:08:43;;;;;;;28.23;10.55;;;5.30;52.70;;;;;;7493344;23;20015;-66
2023/02/12 04:12:33;;;;;;;20.67;8.20;;;5.30;52.90;;;;;;7506916;23;20460;-66
2023/02/12 04:15:43;;;;;;;27.15;10.57;;;5.30;52.90;;;;;;7423448;23;20095;-66
2023/02/12 04:18:48;;;;;;;27.88;10.57;;;5.30;53.00;;;;;;7422949;24;20080;-65
2023/02/12 04:22:15;;;;;;;26.08;8.32;;;5.30;53.10;;;;;;7423630;24;20012;-67
2023/02/12 04:25:27;;;;;;;24.25;8.30;;;5.20;53.10;;;;;;7399608;24;20387;-66
2023/02/12 04:28:54;;;;;;;21.20;10.23;;;5.20;53.30;;;;;;7422528;24;20016;-66
2023/02/12 04:32:15;;;;;;;20.80;8.88;;;5.10;53.40;;;;;;7399462;24;20443;-66
2023/02/12 04:35:23;;;;;;;28.95;8.95;;;5.10;53.50;;;;;;7399853;24;20024;-66
2023/02/12 04:38:47;;;;;;;22.92;9.07;;;5.10;53.60;;;;;;7423051;24;20016;-64
2023/02/12 04:41:48;;;;;;;16.67;8.27;;;5.10;53.60;;;;;;7400372;24;20425;-66
2023/02/12 04:44:49;;;;;;;20.38;9.38;;;5.10;53.70;;;;;;7423424;24;20122;-65
2023/02/12 04:47:50;;;;;;;24.88;9.23;;;5.10;53.70;;;;;;7399822;24;20339;-65
2023/02/12 04:50:51;;;;;;;15.95;8.68;;;5.10;53.70;;;;;;7480396;23;20012;-65
2023/02/12 04:53:53;;;;;;;25.55;9.25;;;5.10;53.70;;;;;;7534697;23;20055;-65
2023/02/12 04:56:54;;;;;;;21.45;8.23;;;5.10;53.70;;;;;;7531710;23;20516;-67
2023/02/12 04:59:55;;;;;;;25.05;9.50;;;5.10;53.60;;;;;;7535174;23;20003;-67
2023/02/12 05:02:56;;;;;;;30.40;10.13;;;5.10;53.50;;;;;;7533348;23;20003;-65
2023/02/12 05:06:02;;;;;;;20.90;8.57;;;5.20;53.50;;;;;;7531762;23;20014;-66
2023/02/12 05:09:05;;;;;;;18.85;9.50;;;5.20;53.50;;;;;;7531320;23;20078;-65
2023/02/12 05:12:06;;;;;;;25.08;8.27;;;5.20;53.50;;;;;;7506171;23;20037;-65
2023/02/12 05:15:08;;;;;;;18.45;8.38;;;5.20;53.50;;;;;;7529908;23;20085;-67
2023/02/12 05:18:09;;;;;;;23.83;9.85;;;5.20;53.40;;;;;;7528990;23;20065;-66
2023/02/12 05:21:10;;;;;;;20.00;8.43;;;5.20;53.50;;;;;;7530262;23;20469;-66
2023/02/12 05:24:11;;;;;;;18.08;8.32;;;5.20;53.40;;;;;;7531487;23;20007;-65
2023/02/12 05:27:12;;;;;;;22.98;10.65;;;5.20;53.50;;;;;;7529141;23;20293;-66
2023/02/12 05:30:13;;;;;;;24.25;9.85;;;5.20;53.60;;;;;;7531752;23;20018;-67
2023/02/12 05:33:14;;;;;;;22.48;8.85;;;5.10;53.60;;;;;;7531327;23;20436;-66
2023/02/12 05:36:21;;;;;;;19.40;8.95;;;5.10;53.60;;;;;;7530306;23;20049;-67
2023/02/12 05:39:22;;;;;;;20.92;8.68;;;5.10;53.70;;;;;;7529461;23;20089;-65
2023/02/12 05:42:23;;;;;;;22.52;9.52;;;5.00;53.80;;;;;;7531700;23;20003;-66
2023/02/12 05:45:26;;;;;;;21.90;8.65;;;5.00;53.90;;;;;;7531241;23;20011;-66
2023/02/12 05:48:28;;;;;;;21.75;8.43;;;4.90;54.00;;;;;;7529363;23;20019;-66
2023/02/12 05:51:30;;;;;;;16.35;7.00;;;4.90;54.10;;;;;;7531386;23;20010;-66
2023/02/12 05:54:31;;;;;;;26.05;10.18;;;4.90;54.10;;;;;;7529772;23;20018;-65
2023/02/12 05:57:32;;;;;;;21.13;8.15;;;4.90;54.10;;;;;;7530915;23;20010;-66
2023/02/12 06:00:34;;;;;;;17.25;9.10;;;4.90;54.10;;;;;;7531369;23;20003;-66
2023/02/12 06:03:35;;;;;;;21.58;8.05;;;4.90;54.10;;;;;;7531115;23;20432;-66
2023/02/12 06:06:36;;;;;;;25.25;8.25;;;4.90;54.10;;;;;;7529914;23;20014;-65
2023/02/12 06:09:37;;;;;;;20.30;7.20;;;4.90;54.20;;;;;;7529230;23;20098;-65
2023/02/12 06:12:38;;;;;;;27.05;7.88;;;4.80;54.20;;;;;;7529698;23;20010;-66
2023/02/12 06:15:39;;;;;;;19.85;9.60;;;4.80;54.30;;;;;;7531290;23;20062;-67
2023/02/12 06:18:40;;;;;;;22.80;7.97;;;4.80;54.40;;;;;;7528943;23;20415;-66
2023/02/12 06:21:41;;;;;;;20.38;9.20;;;4.80;54.40;;;;;;7531516;23;20003;-66
2023/02/12 06:24:42;;;;;;;24.92;9.45;;;4.80;54.50;;;;;;7530854;23;20058;-69
2023/02/12 06:27:43;;;;;;;16.33;8.80;;;4.70;54.50;;;;;;7529073;23;20440;-66
2023/02/12 06:30:44;;;;;;;38.95;8.75;;;4.70;54.50;;;;;;7529286;23;20015;-67
2023/02/12 06:33:45;;;;;;;19.45;6.45;;;4.60;54.60;;;;;;7531039;23;20425;-66
2023/02/12 06:36:47;;;;;;;16.55;7.22;;;4.60;54.80;;;;;;7530754;23;20022;-66
2023/02/12 06:39:48;;;;;;;22.25;7.60;;;4.60;54.80;;;;;;7529016;23;20142;-65
2023/02/12 06:42:49;;;;;;;18.05;7.53;;;4.50;54.90;;;;;;7531233;23;20010;-65
2023/02/12 06:45:50;;;;;;;16.42;7.63;;;4.50;55.10;;;;;;7531120;23;20094;-66
2023/02/12 06:48:55;;;;;;;17.20;8.27;;;4.40;55.10;;;;;;7530817;23;20007;-66
2023/02/12 06:51:56;;;;;;;28.38;8.38;;;4.40;55.20;;;;;;7529472;23;20457;-65
2023/02/12 06:54:57;;;;;;;22.52;9.60;;;4.40;55.30;;;;;;7530953;23;20086;-66
2023/02/12 06:57:58;;;;;;;24.88;9.02;;;4.50;55.30;;;;;;7529196;23;20345;-66
2023/02/12 07:01:18;;;;;;;18.33;8.70;;;4.50;55.40;;;;;;7529334;23;20018;-67
2023/02/12 07:04:20;;;;;;;14.40;6.72;;;4.60;55.30;;;;;;7530940;23;20066;-66
2023/02/12 07:07:21;;;;;;;17.52;8.18;;;4.60;55.20;;;;;;7529225;23;20010;-67
2023/02/12 07:10:22;;;;;;;16.05;7.53;;;4.60;55.20;;;;;;7529608;23;20082;-65
2023/02/12 07:13:23;;;;;;;19.55;8.65;;;4.50;55.20;;;;;;7530893;23;20014;-66
2023/02/12 07:16:25;;;;;;;19.85;7.63;;;4.50;55.30;;;;;;7530366;23;20022;-66
2023/02/12 07:19:26;;;;;;;16.20;7.50;;;4.50;55.40;;;;;;7530492;23;20399;-66
2023/02/12 07:22:27;;;;;;;18.42;8.80;;;4.50;55.40;;;;;;7532784;23;20383;-65
2023/02/12 07:25:28;;;;;;;14.30;6.80;;;4.60;55.40;;;;;;7531683;23;20059;-66
2023/02/12 07:28:32;;;;;;;12.23;6.30;;;4.60;55.30;;;;;;7530417;23;20021;-65
2023/02/12 07:31:33;;;;;;;17.55;7.10;;;4.70;55.20;;;;;;7530747;23;20385;-67
2023/02/12 07:34:34;;;;;;;19.20;8.45;;;4.70;55.10;;;;;;7505490;23;20424;-66
2023/02/12 07:37:35;;;;;;;23.15;8.98;;;4.80;55.00;;;;;;7528864;23;20013;-65
2023/02/12 07:40:36;;;;;;;16.05;7.35;;;4.80;54.80;;;;;;7542494;23;20015;-66
2023/02/12 07:43:42;;;;;;;20.92;8.43;;;4.90;54.70;;;;;;7573219;23;20007;-66
2023/02/12 07:46:48;;;;;;;24.30;8.98;;;4.80;54.60;;;;;;7546568;23;20069;-68
2023/02/12 07:49:49;;;;;;;13.80;6.65;;;4.90;54.50;;;;;;7542950;23;20379;-67
2023/02/12 07:52:50;;;;;;;11.75;6.68;;;4.90;54.60;;;;;;7569140;23;20006;-66
2023/02/12 07:55:51;;;;;;;15.98;7.32;;;4.90;54.60;;;;;;7543316;23;20011;-65
2023/02/12 07:58:52;;;;;;;18.35;8.70;;;5.00;54.70;;;;;;7568965;23;20010;-66
2023/02/12 08:01:53;;;;;;;12.10;7.20;;;5.00;54.60;;;;;;7519570;23;20365;-66
2023/02/12 08:04:56;;;;;;;19.50;8.68;;;5.00;54.50;;;;;;7543472;23;20306;-67
2023/02/12 08:07:57;;;;;;;31.80;9.15;;;5.10;54.60;;;;;;7568659;23;20348;-66
2023/02/12 08:10:58;;;;;;;25.35;9.73;;;5.20;54.40;;;;;;7543073;23;20018;-67
2023/02/12 08:13:59;;;;;;;21.13;8.57;;;5.40;54.30;;;;;;7542973;23;20015;-66
2023/02/12 08:17:00;;;;;;;19.70;7.97;;;5.40;54.00;;;;;;7568293;23;20085;-67
2023/02/12 08:20:02;;;;;;;22.77;8.65;;;5.50;53.90;;;;;;7568264;23;20077;-68
2023/02/12 08:23:02;;;;;;;16.38;8.27;;;5.60;53.80;;;;;;7542819;23;20014;-66
2023/02/12 08:26:14;;;;;;;18.67;7.32;;;5.70;53.50;;;;;;7542850;23;20010;-66
2023/02/12 08:29:19;;;;;;;20.58;8.13;;;5.80;53.20;;;;;;7542541;23;20014;-68
2023/02/12 08:32:20;;;;;;;18.23;8.48;;;5.80;53.10;;;;;;7568157;23;20014;-67
2023/02/12 08:35:20;;;;;;;27.80;8.20;;;5.90;53.60;;;;;;7568336;23;20013;-67
2023/02/12 08:38:22;;;;;;;25.98;8.05;;;6.10;52.90;;;;;;7541901;23;20381;-66
2023/02/12 08:41:25;;;;;;;20.85;8.75;;;6.00;52.70;;;;;;7542571;23;20006;-67
2023/02/12 08:44:26;;;;;;;17.45;8.32;;;6.10;52.70;;;;;;7567822;23;20006;-67
2023/02/12 08:47:27;;;;;;;27.23;8.73;;;6.20;52.40;;;;;;7567616;23;20037;-66
2023/02/12 08:50:28;;;;;;;23.08;8.05;;;6.20;52.30;;;;;;7567222;23;20052;-67
2023/02/12 08:53:29;;;;;;;20.25;7.60;;;6.30;52.10;;;;;;7567999;23;20085;-66
2023/02/12 08:56:32;;;;;;;16.13;7.82;;;6.40;52.10;;;;;;7572262;23;20037;-66
2023/02/12 08:59:33;;;;;;;18.33;8.85;;;6.50;52.00;;;;;;7572686;23;20022;-66
2023/02/12 09:02:34;;;;;;;27.63;9.18;;;6.60;51.70;;;;;;7572558;23;20329;-67
2023/02/12 09:05:39;;;;;;;20.52;8.35;;;6.80;51.40;;;;;;7571124;23;20002;-68
2023/02/12 09:08:40;;;;;;;20.63;9.07;;;6.80;51.10;;;;;;7568012;23;20018;-67
2023/02/12 09:11:41;;;;;;;22.25;8.98;;;6.90;51.00;;;;;;7542171;23;20013;-65
2023/02/12 09:14:43;;;;;;;17.38;7.50;;;7.00;50.80;;;;;;7567519;23;20010;-67
2023/02/12 09:17:43;;;;;;;18.75;8.32;;;7.10;50.40;;;;;;7567401;23;20006;-66
2023/02/12 09:20:45;;;;;;;21.52;8.38;;;7.20;50.00;;;;;;7567458;23;20007;-66
2023/02/12 09:23:46;;;;;;;13.98;7.10;;;7.20;50.00;;;;;;7567587;23;20010;-67
2023/02/12 09:26:47;;;;;;;18.38;9.20;;;7.20;49.90;;;;;;7567632;23;20042;-67
2023/02/12 09:29:48;;;;;;;23.85;10.40;;;7.30;49.70;;;;;;7567510;23;20058;-66
2023/02/12 09:32:49;;;;;;;22.73;9.77;;;7.30;49.80;;;;;;7567782;23;20058;-66
2023/02/12 09:35:50;;;;;;;17.77;8.18;;;7.40;49.70;;;;;;7568734;23;20010;-67
2023/02/12 09:38:53;;;;;;;17.75;8.45;;;7.40;49.20;;;;;;7547808;23;20011;-66
2023/02/12 09:42:17;;;;;;;23.23;9.55;;;7.50;49.00;;;;;;7567577;23;20503;-68
2023/02/12 09:45:25;;;;;;;22.02;8.35;;;7.50;49.00;;;;;;7567373;23;20372;-67
2023/02/12 09:48:47;;;;;;;25.13;8.93;;;7.60;49.00;;;;;;7566647;23;20006;-66
2023/02/12 09:51:52;;;;;;;17.95;8.90;;;7.80;48.60;;;;;;7565434;23;20014;-67
2023/02/12 09:54:54;;;;;;;18.58;9.10;;;7.80;48.40;;;;;;7565584;23;20010;-67
2023/02/12 09:57:56;;;;;;;17.08;7.85;;;8.00;48.20;;;;;;7566818;23;20115;-67
2023/02/12 10:00:57;;;;;;;19.98;9.43;;;8.10;47.90;;;;;;7565437;23;20018;-67
2023/02/12 10:03:59;;;;;;;17.13;7.75;;;8.20;47.80;;;;;;7567137;23;20492;-67
2023/02/12 10:07:25;;;;;;;13.40;6.60;;;8.30;47.50;;;;;;7566764;23;20384;-67
2023/02/12 10:10:56;;;;;;;19.35;8.02;;;8.40;47.00;;;;;;7567192;23;20321;-66
2023/02/12 10:14:16;;;;;;;16.63;7.32;;;8.50;46.60;;;;;;7566979;23;20006;-65
2023/02/12 10:17:42;;;;;;;22.88;8.23;;;8.60;46.70;;;;;;7566075;23;20040;-66
2023/02/12 10:21:11;;;;;;;18.85;7.43;;;8.70;46.30;;;;;;7566929;23;20302;-67
2023/02/12 10:24:24;;;;;;;15.52;6.20;;;8.80;45.40;;;;;;7565113;23;20296;-68
2023/02/12 10:27:45;;;;;;;18.08;6.38;;;8.90;44.80;;;;;;7564785;23;20126;-66
2023/02/12 10:30:57;;;;;;;11.93;6.32;;;9.20;44.30;;;;;;7567205;23;20014;-67
2023/02/12 10:33:58;;;;;;;26.30;7.47;;;9.60;43.70;;;;;;7566761;23;20034;-66
2023/02/12 10:37:16;;;;;;;14.80;7.20;;;9.90;43.10;;;;;;7566754;23;20515;-69
2023/02/12 10:40:29;;;;;;;21.10;6.90;;;10.20;42.70;;;;;;7568572;23;20042;-65
2023/02/12 10:43:30;;;;;;;15.25;6.50;;;10.60;42.40;;;;;;7574182;23;20370;-66
2023/02/12 10:46:31;;;;;;;14.60;6.22;;;10.90;42.00;;;;;;7568487;23;20031;-68
2023/02/12 10:49:32;;;;;;;28.55;7.45;;;11.10;41.70;;;;;;7566540;23;20009;-68
2023/02/12 10:52:43;;;;;;;26.42;9.15;;;11.30;41.90;;;;;;7566866;23;20006;-66
2023/02/12 10:55:44;;;;;;;20.13;9.07;;;11.50;40.70;;;;;;7566472;23;20006;-66
2023/02/12 10:58:58;;;;;;;16.90;8.43;;;11.80;40.00;;;;;;7540708;23;20010;-66
2023/02/12 11:01:59;;;;;;;20.55;7.80;;;12.00;39.30;;;;;;7565305;23;20006;-68
2023/02/12 11:05:22;;;;;;;21.95;8.00;;;12.10;38.90;;;;;;7566421;23;20085;-67
2023/02/12 11:08:36;;;;;;;26.90;9.15;;;12.20;39.30;;;;;;7566437;23;20428;-67
2023/02/12 11:11:38;;;;;;;13.75;6.53;;;12.60;39.20;;;;;;7566394;23;20034;-66
2023/02/12 11:14:38;;;;;;;19.73;8.18;;;12.90;38.60;;;;;;7564641;23;20014;-65
2023/02/12 11:17:43;;;;;;;17.20;8.15;;;13.10;37.30;;;;;;7566404;23;20010;-66
2023/02/12 11:21:01;;;;;;;21.63;9.30;;;13.30;37.40;;;;;;7568390;23;20009;-66
2023/02/12 11:24:21;;;;;;;23.67;10.80;;;13.50;37.00;;;;;;7568452;23;20006;-66
2023/02/12 11:27:24;;;;;;;30.20;9.88;;;13.90;36.70;;;;;;7568105;23;20007;-66
2023/02/12 11:30:25;;;;;;;24.25;10.95;;;14.20;36.20;;;;;;7568603;23;20104;-67
2023/02/12 11:33:30;;;;;;;27.90;10.35;;;14.70;35.80;;;;;;7568476;23;20046;-68
2023/02/12 11:36:35;;;;;;;23.13;10.88;;;15.10;34.30;;;;;;7568423;23;20086;-68
2023/02/12 11:39:38;;;;;;;26.90;11.20;;;15.40;33.30;;;;;;7568033;23;20014;-69
2023/02/12 11:42:42;;;;;;;29.48;10.60;;;15.60;32.90;;;;;;7568561;23;20014;-66
2023/02/12 11:45:51;;;;;;;26.77;10.27;;;16.00;32.70;;;;;;7568235;23;20412;-67
2023/02/12 11:48:54;;;;;;;29.88;12.25;;;16.40;31.70;;;;;;7568396;23;20010;-65
2023/02/12 11:51:58;;;;;;;23.33;9.93;;;16.70;30.50;;;;;;7568976;23;20010;-67
2023/02/12 11:55:21;;;;;;;22.98;9.55;;;17.00;30.70;;;;;;7568928;23;20022;-68
2023/02/12 11:58:24;;;;;;;26.20;11.63;;;17.50;30.50;;;;;;7568821;23;20018;-66
2023/02/12 12:01:33;;;;;;;30.95;9.90;;;18.10;30.00;;;;;;7569981;23;20026;-66
2023/02/12 12:04:36;;;;;;;32.75;11.73;;;18.60;28.80;;;;;;7569926;23;20014;-66
2023/02/12 12:07:43;;;;;;;27.02;11.07;;;18.70;28.20;;;;;;7568207;23;20034;-65
2023/02/12 12:10:55;;;;;;;29.25;12.10;;;18.90;28.40;;;;;;7568616;23;20011;-67
2023/02/12 12:14:19;;;;;;;24.45;11.20;;;19.20;27.60;;;;;;7542633;23;20124;-67
2023/02/12 12:21:00;;;;;;;24.20;11.23;;;19.80;27.20;;;;;;7542726;23;20010;-65
2023/02/12 12:24:16;;;;;;;28.08;11.30;;;19.30;27.30;;;;;;7542269;23;20017;-67
2023/02/12 12:31:06;;;;;;;25.00;10.48;;;18.30;28.10;;;;;;7546380;23;20010;-66
2023/02/12 12:34:13;;;;;;;31.45;11.07;;;17.90;28.60;;;;;;7542363;23;20010;-66
2023/02/12 12:37:30;;;;;;;28.50;10.65;;;17.70;29.00;;;;;;7541542;23;20010;-66
2023/02/12 12:40:43;;;;;;;27.38;11.90;;;17.50;29.20;;;;;;7541205;23;20006;-66
2023/02/12 12:43:56;;;;;;;25.60;10.52;;;17.30;29.00;;;;;;7566245;23;20006;-66
2023/02/12 12:47:09;;;;;;;26.88;11.18;;;17.10;28.90;;;;;;7566524;23;20011;-65
2023/02/12 12:50:44;;;;;;;24.38;10.88;;;16.80;29.00;;;;;;7567768;23;20625;-67
2023/02/12 12:54:07;;;;;;;33.17;10.63;;;16.50;29.40;;;;;;7567916;23;20006;-67
2023/02/12 12:57:28;;;;;;;23.35;10.35;;;16.20;29.80;;;;;;7567148;23;20017;-66
2023/02/12 13:00:50;;;;;;;27.42;11.50;;;16.00;30.00;;;;;;7566061;23;20006;-67
2023/02/12 13:04:22;;;;;;;24.88;10.15;;;15.70;30.00;;;;;;7567659;23;20395;-65
2023/02/12 13:07:38;;;;;;;26.95;10.25;;;15.40;30.70;;;;;;7567237;23;20014;-65
2023/02/12 13:10:48;;;;;;;21.00;9.88;;;15.20;31.20;;;;;;7541761;23;20411;-66
2023/02/12 13:13:56;;;;;;;32.97;11.02;;;15.00;31.50;;;;;;7568831;23;20069;-67
2023/02/12 13:17:28;;;;;;;24.48;10.40;;;14.90;31.80;;;;;;7569435;23;20404;-66
2023/02/12 13:20:41;;;;;;;24.30;10.15;;;14.70;31.90;;;;;;7421590;23;20040;-65
2023/02/12 13:24:00;;;;;;;22.83;8.50;;;14.60;32.10;;;;;;7441564;23;20027;-67
2023/02/12 13:27:05;;;;;;;;;;;14.50;32.50;;;;;;7458502;23;20519;-66
2023/02/12 13:30:30;;;;;;;27.88;9.48;;;14.50;32.60;;;;;;7457421;23;19906;-67
2023/02/12 13:33:51;;;;;;;22.17;9.80;;;14.50;32.80;;;;;;7457558;23;20016;-66
2023/02/12 13:36:52;;;;;;;20.13;8.50;;;14.50;32.70;;;;;;7433971;23;20014;-66
2023/02/12 13:39:59;;;;;;;23.55;9.35;;;14.50;33.00;;;;;;7459217;23;20028;-66
2023/02/12 13:43:35;;;;;;;28.73;10.43;;;14.50;33.00;;;;;;7462974;23;20134;-67
2023/02/12 13:47:12;;;;;;;26.55;9.68;;;14.50;33.10;;;;;;7353978;24;20047;-68
2023/02/12 13:50:33;;;;;;;25.17;9.40;;;14.50;32.90;;;;;;7350906;24;20013;-67
2023/02/12 13:54:02;;;;;;;24.63;9.63;;;14.50;32.70;;;;;;7354041;24;20005;-68
2023/02/12 13:57:12;;;;;;;61.58;10.38;;;14.50;32.80;;;;;;7400017;23;20110;-68
2023/02/12 14:01:07;;;;;;;30.33;10.20;;;14.50;32.80;;;;;;7457191;23;20019;-66
2023/02/12 14:04:21;;;;;;;26.20;9.82;;;14.60;33.00;;;;;;7364921;24;20008;-66
2023/02/12 14:07:23;;;;;;;31.13;10.52;;;14.60;33.10;;;;;;7364531;24;20012;-68
2023/02/12 14:10:40;;;;;;;25.77;9.52;;;14.70;32.90;;;;;;7388165;24;20083;-66
2023/02/12 14:13:52;;;;;;;31.33;11.13;;;14.70;32.90;;;;;;7364435;24;20013;-66
2023/02/12 14:16:53;;;;;;;30.05;10.32;;;14.70;33.00;;;;;;7387312;24;20027;-66
2023/02/12 14:19:56;;;;;;;27.23;10.38;;;14.80;33.00;;;;;;7387320;24;20082;-67
2023/02/12 14:23:20;;;;;;;24.35;11.13;;;14.80;33.00;;;;;;7434561;23;20078;-66
2023/02/12 14:26:24;;;;;;;26.65;10.45;;;14.80;33.10;;;;;;7495561;23;20011;-66
2023/02/12 14:29:25;;;;;;;29.65;10.88;;;14.90;33.10;;;;;;7492692;23;20031;-67
2023/02/12 14:32:45;;;;;;;35.58;11.45;;;14.90;33.10;;;;;;7468443;23;20018;-65
2023/02/12 14:35:48;;;;;;;27.15;10.43;;;14.90;33.10;;;;;;7492294;23;20098;-67
2023/02/12 14:38:58;;;;;;;27.17;11.50;;;14.90;33.20;;;;;;7553645;23;20042;-67
2023/02/12 14:42:08;;;;;;;25.90;10.43;;;14.90;33.20;;;;;;7566866;23;20089;-66
2023/02/12 14:45:33;;;;;;;37.67;11.10;;;14.90;33.30;;;;;;7566095;23;20034;-67
2023/02/12 14:48:46;;;;;;;28.75;10.45;;;14.90;33.40;;;;;;7566158;23;20010;-67
2023/02/12 14:52:03;;;;;;;31.92;10.30;;;14.90;33.50;;;;;;7570526;23;20010;-68
2023/02/12 14:55:17;;;;;;;29.70;10.85;;;14.90;33.50;;;;;;7570358;23;20013;-65
2023/02/12 14:58:23;;;;;;;32.25;10.45;;;14.90;33.50;;;;;;7545009;23;20081;-66
2023/02/12 15:01:32;;;;;;;34.00;12.25;;;14.90;33.60;;;;;;7544907;23;20010;-67
2023/02/12 15:04:37;;;;;;;28.15;11.32;;;14.90;33.60;;;;;;7545361;23;20006;-66
2023/02/12 15:07:50;;;;;;;32.42;12.00;;;14.90;33.60;;;;;;7570256;23;20017;-65
2023/02/12 15:11:08;;;;;;;33.90;11.90;;;14.90;33.70;;;;;;7571054;23;20065;-67
2023/02/12 15:14:19;;;;;;;31.42;11.52;;;14.90;33.80;;;;;;7545320;23;20061;-67
2023/02/12 15:17:25;;;;;;;33.88;11.82;;;14.90;33.80;;;;;;7569846;23;20020;-66
2023/02/12 15:20:49;;;;;;;30.42;11.25;;;14.90;33.80;;;;;;7570712;23;20371;-66
2023/02/12 15:24:07;;;;;;;32.22;11.30;;;14.90;33.90;;;;;;7545485;23;20003;-67
2023/02/12 15:27:15;;;;;;;33.35;10.75;;;14.90;33.90;;;;;;7570317;23;20010;-67
2023/02/12 15:30:18;;;;;;;32.80;11.05;;;14.90;33.80;;;;;;7545056;23;20021;-66
2023/02/12 15:33:26;;;;;;;30.30;10.45;;;14.90;33.60;;;;;;7545502;23;20018;-67
2023/02/12 15:36:31;;;;;;;32.75;10.32;;;14.80;33.50;;;;;;7570725;23;20369;-66
2023/02/12 15:39:43;;;;;;;32.33;10.13;;;14.80;33.30;;;;;;7570507;23;20038;-68
2023/02/12 15:43:03;;;;;;;53.78;17.08;;;14.80;33.30;;;;;;7571216;23;20010;-65
2023/02/12 15:46:13;;;;;;;26.05;9.48;;;14.80;33.40;;;;;;7544990;23;20014;-68
2023/02/12 15:49:21;;;;;;;27.55;8.65;;;14.80;33.30;;;;;;7570024;23;20482;-67
2023/02/12 15:52:35;;;;;;;28.17;11.40;;;14.70;33.10;;;;;;7570501;23;20010;-66
2023/02/12 15:55:40;;;;;;;23.90;9.60;;;14.70;33.00;;;;;;7544613;23;20089;-67
2023/02/12 15:58:49;;;;;;;25.98;9.80;;;14.70;33.00;;;;;;7570288;23;20033;-66
2023/02/12 16:01:59;;;;;;;26.98;10.10;;;14.70;33.20;;;;;;7569212;23;20006;-67
2023/02/12 16:05:04;;;;;;;22.02;8.60;;;14.70;33.30;;;;;;7542577;23;20026;-66
2023/02/12 16:08:05;;;;;;;29.75;8.63;;;14.70;33.40;;;;;;7568163;23;20006;-66
2023/02/12 16:11:14;;;;;;;27.83;9.98;;;14.70;33.40;;;;;;7542603;23;20017;-66
2023/02/12 16:14:30;;;;;;;26.70;9.85;;;14.60;33.90;;;;;;7542698;23;20022;-68
2023/02/12 16:17:34;;;;;;;29.15;10.38;;;14.50;33.40;;;;;;7567360;23;20014;-67